sensor_id;sensor_type;location;lat;lon;timestamp;temperature;humidity
32811;DHT22;65470;47.324;8.548;2023-06-19T00:01:15;22.30;99.90
32811;DHT22;65470;47.324;8.548;2023-06-19T00:03:41;22.20;99.90
32811;DHT22;65470;47.324;8.548;2023-06-19T00:06:07;22.20;99.90
32811;DHT22;65470;47.324;8.548;2023-06-19T00:08:32;22.20;99.90
32811;DHT22;65470;47.324;8.548;2023-06-19T00:10:58;22.20;99.90
32811;DHT22;65470;47.324;8.548;2023-06-19T00:13:23;22.20;99.90
32811;DHT22;65470;47.324;8.548;2023-06-19T00:15:49;22.20;99.90
32811;DHT22;65470;47.324;8.548;2023-06-19T00:18:15;22.20;99.90
32811;DHT22;65470;47.324;8.548;2023-06-19T00:20:42;22.20;99.90
32811;DHT22;65470;47.324;8.548;2023-06-19T00:23:11;22.20;99.90
32811;DHT22;65470;47.324;8.548;2023-06-19T00:25:40;22.20;99.90
32811;DHT22;65470;47.324;8.548;2023-06-19T00:28:06;22.20;99.90
32811;DHT22;65470;47.324;8.548;2023-06-19T00:30:39;22.20;99.90
32811;DHT22;65470;47.324;8.548;2023-06-19T00:33:05;22.10;99.90
32811;DHT22;65470;47.324;8.548;2023-06-19T00:35:31;22.00;99.90
32811;DHT22;65470;47.324;8.548;2023-06-19T00:37:57;22.00;99.90
32811;DHT22;65470;47.324;8.548;2023-06-19T00:40:30;21.90;99.90
32811;DHT22;65470;47.324;8.548;2023-06-19T00:42:56;21.90;99.90
32811;DHT22;65470;47.324;8.548;2023-06-19T00:45:23;21.90;99.90
32811;DHT22;65470;47.324;8.548;2023-06-19T00:47:52;21.90;99.90
32811;DHT22;65470;47.324;8.548;2023-06-19T00:50:18;22.00;99.90
32811;DHT22;65470;47.324;8.548;2023-06-19T00:52:44;22.00;99.90
32811;DHT22;65470;47.324;8.548;2023-06-19T00:55:10;22.00;99.90
32811;DHT22;65470;47.324;8.548;2023-06-19T00:57:36;22.00;99.90
32811;DHT22;65470;47.324;8.548;2023-06-19T01:00:03;22.00;99.90
32811;DHT22;65470;47.324;8.548;2023-06-19T01:02:32;22.00;99.90
32811;DHT22;65470;47.324;8.548;2023-06-19T01:04:57;22.10;99.90
32811;DHT22;65470;47.324;8.548;2023-06-19T01:07:35;22.00;99.90
32811;DHT22;65470;47.324;8.548;2023-06-19T01:10:09;22.10;99.90
32811;DHT22;65470;47.324;8.548;2023-06-19T01:12:38;22.10;99.90
32811;DHT22;65470;47.324;8.548;2023-06-19T01:15:07;22.00;99.90
32811;DHT22;65470;47.324;8.548;2023-06-19T01:17:35;22.00;99.90
32811;DHT22;65470;47.324;8.548;2023-06-19T01:20:01;21.90;99.90
32811;DHT22;65470;47.324;8.548;2023-06-19T01:22:32;21.90;99.90
32811;DHT22;65470;47.324;8.548;2023-06-19T01:24:58;22.00;99.90
32811;DHT22;65470;47.324;8.548;2023-06-19T01:27:25;22.10;99.90
32811;DHT22;65470;47.324;8.548;2023-06-19T01:29:52;22.20;99.90
32811;DHT22;65470;47.324;8.548;2023-06-19T01:32:24;22.20;99.90
32811;DHT22;65470;47.324;8.548;2023-06-19T01:34:52;22.20;99.90
32811;DHT22;65470;47.324;8.548;2023-06-19T01:37:19;22.20;99.90
32811;DHT22;65470;47.324;8.548;2023-06-19T01:39:46;22.40;99.90
32811;DHT22;65470;47.324;8.548;2023-06-19T01:42:13;22.50;99.90
32811;DHT22;65470;47.324;8.548;2023-06-19T01:44:40;22.60;99.90
32811;DHT22;65470;47.324;8.548;2023-06-19T01:47:12;22.70;99.90
32811;DHT22;65470;47.324;8.548;2023-06-19T01:49:39;22.70;99.90
32811;DHT22;65470;47.324;8.548;2023-06-19T01:52:05;22.80;99.90
32811;DHT22;65470;47.324;8.548;2023-06-19T01:54:30;22.80;99.90
32811;DHT22;65470;47.324;8.548;2023-06-19T01:56:57;22.90;99.90
32811;DHT22;65470;47.324;8.548;2023-06-19T01:59:23;22.90;99.90
32811;DHT22;65470;47.324;8.548;2023-06-19T02:05:11;22.80;99.90
32811;DHT22;65470;47.324;8.548;2023-06-19T02:07:38;22.80;99.90
32811;DHT22;65470;47.324;8.548;2023-06-19T02:10:04;22.70;99.90
32811;DHT22;65470;47.324;8.548;2023-06-19T02:12:30;22.60;99.90
32811;DHT22;65470;47.324;8.548;2023-06-19T02:14:56;22.60;99.90
32811;DHT22;65470;47.324;8.548;2023-06-19T02:17:21;22.50;99.90
32811;DHT22;65470;47.324;8.548;2023-06-19T02:19:47;22.60;99.90
32811;DHT22;65470;47.324;8.548;2023-06-19T02:22:13;22.60;99.90
32811;DHT22;65470;47.324;8.548;2023-06-19T02:24:38;22.60;99.90
32811;DHT22;65470;47.324;8.548;2023-06-19T02:27:05;22.70;99.90
32811;DHT22;65470;47.324;8.548;2023-06-19T02:29:31;22.80;99.90
32811;DHT22;65470;47.324;8.548;2023-06-19T02:31:59;22.80;99.90
32811;DHT22;65470;47.324;8.548;2023-06-19T02:34:25;22.80;99.90
32811;DHT22;65470;47.324;8.548;2023-06-19T02:36:50;22.80;99.90
32811;DHT22;65470;47.324;8.548;2023-06-19T02:39:16;22.80;99.90
32811;DHT22;65470;47.324;8.548;2023-06-19T02:41:42;22.80;99.90
32811;DHT22;65470;47.324;8.548;2023-06-19T02:44:11;22.80;99.90
32811;DHT22;65470;47.324;8.548;2023-06-19T02:46:37;22.80;99.90
32811;DHT22;65470;47.324;8.548;2023-06-19T02:49:03;22.90;99.90
32811;DHT22;65470;47.324;8.548;2023-06-19T02:51:28;22.80;99.90
32811;DHT22;65470;47.324;8.548;2023-06-19T02:53:54;22.80;99.90
32811;DHT22;65470;47.324;8.548;2023-06-19T02:56:20;22.80;99.90
32811;DHT22;65470;47.324;8.548;2023-06-19T02:58:45;22.80;99.90
32811;DHT22;65470;47.324;8.548;2023-06-19T03:01:11;22.70;99.90
32811;DHT22;65470;47.324;8.548;2023-06-19T03:03:37;22.60;99.90
32811;DHT22;65470;47.324;8.548;2023-06-19T03:06:05;22.40;99.90
32811;DHT22;65470;47.324;8.548;2023-06-19T03:08:35;22.20;99.90
32811;DHT22;65470;47.324;8.548;2023-06-19T03:11:00;22.10;99.90
32811;DHT22;65470;47.324;8.548;2023-06-19T03:13:26;21.90;99.90
32811;DHT22;65470;47.324;8.548;2023-06-19T03:15:52;21.70;99.90
32811;DHT22;65470;47.324;8.548;2023-06-19T03:18:17;21.40;99.90
32811;DHT22;65470;47.324;8.548;2023-06-19T03:20:43;21.40;99.90
32811;DHT22;65470;47.324;8.548;2023-06-19T03:23:08;21.40;99.90
32811;DHT22;65470;47.324;8.548;2023-06-19T03:25:34;21.40;99.90
32811;DHT22;65470;47.324;8.548;2023-06-19T03:28:08;21.40;99.90
32811;DHT22;65470;47.324;8.548;2023-06-19T03:30:33;21.30;99.90
32811;DHT22;65470;47.324;8.548;2023-06-19T03:32:59;21.30;99.90
32811;DHT22;65470;47.324;8.548;2023-06-19T03:35:24;21.30;99.90
32811;DHT22;65470;47.324;8.548;2023-06-19T03:37:50;21.30;99.90
32811;DHT22;65470;47.324;8.548;2023-06-19T03:40:16;21.20;99.90
32811;DHT22;65470;47.324;8.548;2023-06-19T03:42:42;21.20;99.90
32811;DHT22;65470;47.324;8.548;2023-06-19T03:45:08;21.30;99.90
32811;DHT22;65470;47.324;8.548;2023-06-19T03:47:33;21.30;99.90
32811;DHT22;65470;47.324;8.548;2023-06-19T03:49:59;21.20;99.90
32811;DHT22;65470;47.324;8.548;2023-06-19T03:52:25;21.20;99.90
32811;DHT22;65470;47.324;8.548;2023-06-19T03:54:50;21.00;99.90
32811;DHT22;65470;47.324;8.548;2023-06-19T03:57:16;21.00;99.90
32811;DHT22;65470;47.324;8.548;2023-06-19T03:59:41;21.10;99.90
32811;DHT22;65470;47.324;8.548;2023-06-19T04:02:07;21.10;99.90
32811;DHT22;65470;47.324;8.548;2023-06-19T04:04:32;21.10;99.90
32811;DHT22;65470;47.324;8.548;2023-06-19T04:06:58;21.10;99.90
32811;DHT22;65470;47.324;8.548;2023-06-19T04:09:26;21.10;99.90
32811;DHT22;65470;47.324;8.548;2023-06-19T04:11:52;21.10;99.90
32811;DHT22;65470;47.324;8.548;2023-06-19T04:14:17;21.10;99.90
32811;DHT22;65470;47.324;8.548;2023-06-19T04:16:43;21.10;99.90
32811;DHT22;65470;47.324;8.548;2023-06-19T04:19:09;21.10;99.90
32811;DHT22;65470;47.324;8.548;2023-06-19T04:21:34;21.10;99.90
32811;DHT22;65470;47.324;8.548;2023-06-19T04:24:00;21.00;99.90
32811;DHT22;65470;47.324;8.548;2023-06-19T04:26:25;21.00;99.90
32811;DHT22;65470;47.324;8.548;2023-06-19T04:28:51;21.00;99.90
32811;DHT22;65470;47.324;8.548;2023-06-19T04:31:17;20.90;99.90
32811;DHT22;65470;47.324;8.548;2023-06-19T04:33:45;20.90;99.90
32811;DHT22;65470;47.324;8.548;2023-06-19T04:36:11;20.90;99.90
32811;DHT22;65470;47.324;8.548;2023-06-19T04:38:36;20.90;99.90
32811;DHT22;65470;47.324;8.548;2023-06-19T04:41:02;20.90;99.90
32811;DHT22;65470;47.324;8.548;2023-06-19T04:43:27;20.90;99.90
32811;DHT22;65470;47.324;8.548;2023-06-19T04:45:53;20.90;99.90
32811;DHT22;65470;47.324;8.548;2023-06-19T04:48:19;21.00;99.90
32811;DHT22;65470;47.324;8.548;2023-06-19T04:50:44;21.00;99.90
32811;DHT22;65470;47.324;8.548;2023-06-19T04:53:10;21.00;99.90
32811;DHT22;65470;47.324;8.548;2023-06-19T04:55:37;21.10;99.90
32811;DHT22;65470;47.324;8.548;2023-06-19T04:58:03;21.00;99.90
32811;DHT22;65470;47.324;8.548;2023-06-19T05:00:28;20.90;99.90
32811;DHT22;65470;47.324;8.548;2023-06-19T05:02:54;20.80;99.90
32811;DHT22;65470;47.324;8.548;2023-06-19T05:05:26;20.80;99.90
32811;DHT22;65470;47.324;8.548;2023-06-19T05:07:52;20.70;99.90
32811;DHT22;65470;47.324;8.548;2023-06-19T05:10:17;20.80;99.90
32811;DHT22;65470;47.324;8.548;2023-06-19T05:12:44;20.70;99.90
32811;DHT22;65470;47.324;8.548;2023-06-19T05:15:10;20.60;99.90
32811;DHT22;65470;47.324;8.548;2023-06-19T05:17:36;20.60;99.90
32811;DHT22;65470;47.324;8.548;2023-06-19T05:20:07;20.60;99.90
32811;DHT22;65470;47.324;8.548;2023-06-19T05:22:33;20.60;99.90
32811;DHT22;65470;47.324;8.548;2023-06-19T05:25:00;20.50;99.90
32811;DHT22;65470;47.324;8.548;2023-06-19T05:27:25;20.50;99.90
32811;DHT22;65470;47.324;8.548;2023-06-19T05:29:51;20.30;99.90
32811;DHT22;65470;47.324;8.548;2023-06-19T05:32:17;20.30;99.90
32811;DHT22;65470;47.324;8.548;2023-06-19T05:34:42;20.30;99.90
32811;DHT22;65470;47.324;8.548;2023-06-19T05:37:08;20.30;99.90
32811;DHT22;65470;47.324;8.548;2023-06-19T05:39:33;20.20;99.90
32811;DHT22;65470;47.324;8.548;2023-06-19T05:41:59;20.20;99.90
32811;DHT22;65470;47.324;8.548;2023-06-19T05:44:25;20.20;99.90
32811;DHT22;65470;47.324;8.548;2023-06-19T05:46:50;20.20;99.90
32811;DHT22;65470;47.324;8.548;2023-06-19T05:49:16;20.20;99.90
32811;DHT22;65470;47.324;8.548;2023-06-19T05:51:41;20.10;99.90
32811;DHT22;65470;47.324;8.548;2023-06-19T05:54:07;20.20;99.90
32811;DHT22;65470;47.324;8.548;2023-06-19T05:56:33;20.20;99.90
32811;DHT22;65470;47.324;8.548;2023-06-19T05:58:59;20.10;99.90
32811;DHT22;65470;47.324;8.548;2023-06-19T06:01:25;20.00;99.90
32811;DHT22;65470;47.324;8.548;2023-06-19T06:03:53;20.00;99.90
32811;DHT22;65470;47.324;8.548;2023-06-19T06:06:19;20.00;99.90
32811;DHT22;65470;47.324;8.548;2023-06-19T06:08:45;20.10;99.90
32811;DHT22;65470;47.324;8.548;2023-06-19T06:11:10;20.10;99.90
32811;DHT22;65470;47.324;8.548;2023-06-19T06:13:36;20.10;99.90
32811;DHT22;65470;47.324;8.548;2023-06-19T06:16:02;20.20;99.90
32811;DHT22;65470;47.324;8.548;2023-06-19T06:18:27;20.20;99.90
32811;DHT22;65470;47.324;8.548;2023-06-19T06:20:53;20.40;99.90
32811;DHT22;65470;47.324;8.548;2023-06-19T06:23:18;20.50;99.90
32811;DHT22;65470;47.324;8.548;2023-06-19T06:25:44;20.60;99.90
32811;DHT22;65470;47.324;8.548;2023-06-19T06:28:11;20.80;99.90
32811;DHT22;65470;47.324;8.548;2023-06-19T06:30:37;20.90;99.90
32811;DHT22;65470;47.324;8.548;2023-06-19T06:33:04;20.90;99.90
32811;DHT22;65470;47.324;8.548;2023-06-19T06:35:30;21.10;99.90
32811;DHT22;65470;47.324;8.548;2023-06-19T06:37:55;21.50;99.90
32811;DHT22;65470;47.324;8.548;2023-06-19T06:40:21;21.60;99.90
32811;DHT22;65470;47.324;8.548;2023-06-19T06:42:47;21.80;99.90
32811;DHT22;65470;47.324;8.548;2023-06-19T06:45:13;22.00;99.90
32811;DHT22;65470;47.324;8.548;2023-06-19T06:47:39;22.20;99.90
32811;DHT22;65470;47.324;8.548;2023-06-19T06:50:06;22.30;99.90
32811;DHT22;65470;47.324;8.548;2023-06-19T06:52:32;22.50;99.90
32811;DHT22;65470;47.324;8.548;2023-06-19T06:54:58;22.80;99.90
32811;DHT22;65470;47.324;8.548;2023-06-19T06:57:24;23.00;99.90
32811;DHT22;65470;47.324;8.548;2023-06-19T06:59:50;23.30;99.90
32811;DHT22;65470;47.324;8.548;2023-06-19T07:02:16;23.30;99.90
32811;DHT22;65470;47.324;8.548;2023-06-19T07:04:41;23.20;99.90
32811;DHT22;65470;47.324;8.548;2023-06-19T07:07:07;23.20;99.90
32811;DHT22;65470;47.324;8.548;2023-06-19T07:09:34;23.00;99.90
32811;DHT22;65470;47.324;8.548;2023-06-19T07:12:00;23.30;99.90
32811;DHT22;65470;47.324;8.548;2023-06-19T07:14:29;23.50;99.90
32811;DHT22;65470;47.324;8.548;2023-06-19T07:16:55;24.00;99.90
32811;DHT22;65470;47.324;8.548;2023-06-19T07:19:21;24.00;99.90
32811;DHT22;65470;47.324;8.548;2023-06-19T07:21:46;24.30;99.90
32811;DHT22;65470;47.324;8.548;2023-06-19T07:24:12;24.70;99.90
32811;DHT22;65470;47.324;8.548;2023-06-19T07:26:38;24.90;99.90
32811;DHT22;65470;47.324;8.548;2023-06-19T07:29:03;25.20;99.90
32811;DHT22;65470;47.324;8.548;2023-06-19T07:31:29;25.30;99.90
32811;DHT22;65470;47.324;8.548;2023-06-19T07:33:55;25.70;99.90
32811;DHT22;65470;47.324;8.548;2023-06-19T07:36:20;26.00;99.90
32811;DHT22;65470;47.324;8.548;2023-06-19T07:38:46;26.80;99.90
32811;DHT22;65470;47.324;8.548;2023-06-19T07:41:11;26.80;99.90
32811;DHT22;65470;47.324;8.548;2023-06-19T07:43:37;27.80;99.90
32811;DHT22;65470;47.324;8.548;2023-06-19T07:46:03;28.70;99.90
32811;DHT22;65470;47.324;8.548;2023-06-19T07:48:29;29.30;99.90
32811;DHT22;65470;47.324;8.548;2023-06-19T07:50:55;28.80;99.90
32811;DHT22;65470;47.324;8.548;2023-06-19T07:53:21;29.10;99.90
32811;DHT22;65470;47.324;8.548;2023-06-19T07:55:47;29.60;99.90
32811;DHT22;65470;47.324;8.548;2023-06-19T07:58:12;29.60;99.90
32811;DHT22;65470;47.324;8.548;2023-06-19T08:00:38;29.20;99.90
32811;DHT22;65470;47.324;8.548;2023-06-19T08:03:04;29.80;99.90
32811;DHT22;65470;47.324;8.548;2023-06-19T08:05:30;29.40;99.90
32811;DHT22;65470;47.324;8.548;2023-06-19T08:07:58;29.50;99.90
32811;DHT22;65470;47.324;8.548;2023-06-19T08:10:23;29.20;99.90
32811;DHT22;65470;47.324;8.548;2023-06-19T08:12:49;29.80;99.90
32811;DHT22;65470;47.324;8.548;2023-06-19T08:15:14;30.10;99.90
32811;DHT22;65470;47.324;8.548;2023-06-19T08:17:41;30.40;99.90
32811;DHT22;65470;47.324;8.548;2023-06-19T08:20:08;31.00;99.90
32811;DHT22;65470;47.324;8.548;2023-06-19T08:22:34;31.70;99.90
32811;DHT22;65470;47.324;8.548;2023-06-19T08:24:59;31.40;99.90
32811;DHT22;65470;47.324;8.548;2023-06-19T08:27:25;31.80;99.90
32811;DHT22;65470;47.324;8.548;2023-06-19T08:29:51;31.90;99.90
32811;DHT22;65470;47.324;8.548;2023-06-19T08:32:17;32.30;98.50
32811;DHT22;65470;47.324;8.548;2023-06-19T08:34:42;32.30;95.80
32811;DHT22;65470;47.324;8.548;2023-06-19T08:37:08;32.50;94.90
32811;DHT22;65470;47.324;8.548;2023-06-19T08:39:34;32.50;94.20
32811;DHT22;65470;47.324;8.548;2023-06-19T08:42:04;31.90;92.70
32811;DHT22;65470;47.324;8.548;2023-06-19T08:44:30;31.50;94.90
32811;DHT22;65470;47.324;8.548;2023-06-19T08:46:57;32.10;95.00
32811;DHT22;65470;47.324;8.548;2023-06-19T08:49:23;33.00;94.30
32811;DHT22;65470;47.324;8.548;2023-06-19T08:51:49;33.30;94.20
32811;DHT22;65470;47.324;8.548;2023-06-19T08:54:14;33.30;91.70
32811;DHT22;65470;47.324;8.548;2023-06-19T08:56:40;33.70;86.90
32811;DHT22;65470;47.324;8.548;2023-06-19T08:59:16;34.50;83.80
32811;DHT22;65470;47.324;8.548;2023-06-19T09:01:50;34.80;81.60
32811;DHT22;65470;47.324;8.548;2023-06-19T09:04:19;35.00;79.60
32811;DHT22;65470;47.324;8.548;2023-06-19T09:06:49;35.30;76.60
32811;DHT22;65470;47.324;8.548;2023-06-19T09:09:16;35.40;74.60
32811;DHT22;65470;47.324;8.548;2023-06-19T09:11:42;35.60;74.80
32811;DHT22;65470;47.324;8.548;2023-06-19T09:14:11;35.70;77.10
32811;DHT22;65470;47.324;8.548;2023-06-19T09:16:40;35.60;81.60
32811;DHT22;65470;47.324;8.548;2023-06-19T09:19:07;35.70;74.90
32811;DHT22;65470;47.324;8.548;2023-06-19T09:21:35;36.20;72.50
32811;DHT22;65470;47.324;8.548;2023-06-19T09:24:06;35.80;79.50
32811;DHT22;65470;47.324;8.548;2023-06-19T09:26:33;35.70;79.50
32811;DHT22;65470;47.324;8.548;2023-06-19T09:29:10;35.60;79.20
32811;DHT22;65470;47.324;8.548;2023-06-19T09:31:35;35.90;82.30
32811;DHT22;65470;47.324;8.548;2023-06-19T09:34:03;36.20;75.80
32811;DHT22;65470;47.324;8.548;2023-06-19T09:36:31;37.10;71.30
32811;DHT22;65470;47.324;8.548;2023-06-19T09:38:57;36.90;76.10
32811;DHT22;65470;47.324;8.548;2023-06-19T09:41:25;37.20;74.00
32811;DHT22;65470;47.324;8.548;2023-06-19T09:43:55;37.10;71.40
32811;DHT22;65470;47.324;8.548;2023-06-19T09:46:28;37.00;70.30
32811;DHT22;65470;47.324;8.548;2023-06-19T09:49:00;37.00;70.90
32811;DHT22;65470;47.324;8.548;2023-06-19T09:51:36;37.10;72.20
32811;DHT22;65470;47.324;8.548;2023-06-19T09:54:03;37.10;74.70
32811;DHT22;65470;47.324;8.548;2023-06-19T09:56:31;37.00;76.60
32811;DHT22;65470;47.324;8.548;2023-06-19T09:58:57;37.10;71.40
32811;DHT22;65470;47.324;8.548;2023-06-19T10:01:30;37.20;72.80
32811;DHT22;65470;47.324;8.548;2023-06-19T10:04:07;37.40;70.70
32811;DHT22;65470;47.324;8.548;2023-06-19T10:06:43;37.50;72.10
32811;DHT22;65470;47.324;8.548;2023-06-19T10:09:09;37.60;71.10
32811;DHT22;65470;47.324;8.548;2023-06-19T10:11:51;37.60;69.70
32811;DHT22;65470;47.324;8.548;2023-06-19T10:14:21;37.60;66.80
32811;DHT22;65470;47.324;8.548;2023-06-19T10:16:47;37.70;65.70
32811;DHT22;65470;47.324;8.548;2023-06-19T10:19:20;37.70;68.20
32811;DHT22;65470;47.324;8.548;2023-06-19T10:21:47;37.90;69.70
32811;DHT22;65470;47.324;8.548;2023-06-19T10:24:15;38.10;68.90
32811;DHT22;65470;47.324;8.548;2023-06-19T10:26:41;38.10;68.20
32811;DHT22;65470;47.324;8.548;2023-06-19T10:29:17;38.30;65.40
32811;DHT22;65470;47.324;8.548;2023-06-19T10:31:45;38.30;65.70
32811;DHT22;65470;47.324;8.548;2023-06-19T10:34:11;38.50;62.80
32811;DHT22;65470;47.324;8.548;2023-06-19T10:36:37;39.00;61.60
32811;DHT22;65470;47.324;8.548;2023-06-19T10:39:03;39.00;61.30
32811;DHT22;65470;47.324;8.548;2023-06-19T10:41:29;38.90;61.70
32811;DHT22;65470;47.324;8.548;2023-06-19T10:44:02;38.50;63.90
32811;DHT22;65470;47.324;8.548;2023-06-19T10:46:35;39.00;66.10
32811;DHT22;65470;47.324;8.548;2023-06-19T10:49:02;39.10;60.00
32811;DHT22;65470;47.324;8.548;2023-06-19T10:51:39;39.20;58.70
32811;DHT22;65470;47.324;8.548;2023-06-19T10:54:06;40.00;57.90
32811;DHT22;65470;47.324;8.548;2023-06-19T10:56:33;39.80;59.30
32811;DHT22;65470;47.324;8.548;2023-06-19T10:59:04;39.60;59.90
32811;DHT22;65470;47.324;8.548;2023-06-19T11:01:36;39.60;59.90
32811;DHT22;65470;47.324;8.548;2023-06-19T11:04:04;39.50;61.10
32811;DHT22;65470;47.324;8.548;2023-06-19T11:06:31;39.40;59.80
32811;DHT22;65470;47.324;8.548;2023-06-19T11:08:56;39.40;57.70
32811;DHT22;65470;47.324;8.548;2023-06-19T11:11:22;39.50;57.80
32811;DHT22;65470;47.324;8.548;2023-06-19T11:13:48;39.20;62.00
32811;DHT22;65470;47.324;8.548;2023-06-19T11:16:16;39.30;62.90
32811;DHT22;65470;47.324;8.548;2023-06-19T11:18:42;39.40;59.20
32811;DHT22;65470;47.324;8.548;2023-06-19T11:21:08;39.40;61.30
32811;DHT22;65470;47.324;8.548;2023-06-19T11:23:34;39.30;62.10
32811;DHT22;65470;47.324;8.548;2023-06-19T11:26:04;39.30;62.20
32811;DHT22;65470;47.324;8.548;2023-06-19T11:28:30;39.30;63.20
32811;DHT22;65470;47.324;8.548;2023-06-19T11:31:00;39.40;58.30
32811;DHT22;65470;47.324;8.548;2023-06-19T11:33:27;39.30;55.60
32811;DHT22;65470;47.324;8.548;2023-06-19T11:35:54;39.10;54.00
32811;DHT22;65470;47.324;8.548;2023-06-19T11:38:24;38.90;54.00
32811;DHT22;65470;47.324;8.548;2023-06-19T11:40:51;38.70;55.20
32811;DHT22;65470;47.324;8.548;2023-06-19T11:45:50;38.20;59.10
32811;DHT22;65470;47.324;8.548;2023-06-19T11:48:26;38.10;56.70
32811;DHT22;65470;47.324;8.548;2023-06-19T11:50:53;38.00;57.80
32811;DHT22;65470;47.324;8.548;2023-06-19T11:53:23;37.80;59.40
32811;DHT22;65470;47.324;8.548;2023-06-19T11:55:50;37.70;59.20
32811;DHT22;65470;47.324;8.548;2023-06-19T11:58:16;37.50;57.10
32811;DHT22;65470;47.324;8.548;2023-06-19T12:00:42;37.40;56.70
32811;DHT22;65470;47.324;8.548;2023-06-19T12:03:08;37.40;54.90
32811;DHT22;65470;47.324;8.548;2023-06-19T12:05:35;37.10;55.70
32811;DHT22;65470;47.324;8.548;2023-06-19T12:08:01;36.90;58.40
32811;DHT22;65470;47.324;8.548;2023-06-19T12:10:28;36.50;60.90
32811;DHT22;65470;47.324;8.548;2023-06-19T12:12:54;36.40;60.90
32811;DHT22;65470;47.324;8.548;2023-06-19T12:15:19;36.60;57.80
32811;DHT22;65470;47.324;8.548;2023-06-19T12:17:46;36.50;57.20
32811;DHT22;65470;47.324;8.548;2023-06-19T12:20:12;36.20;55.60
32811;DHT22;65470;47.324;8.548;2023-06-19T12:22:39;36.20;57.50
32811;DHT22;65470;47.324;8.548;2023-06-19T12:25:05;36.10;52.00
32811;DHT22;65470;47.324;8.548;2023-06-19T12:27:31;35.60;54.30
32811;DHT22;65470;47.324;8.548;2023-06-19T12:29:57;35.80;52.90
32811;DHT22;65470;47.324;8.548;2023-06-19T12:32:22;35.50;55.30
32811;DHT22;65470;47.324;8.548;2023-06-19T12:34:48;35.60;55.30
32811;DHT22;65470;47.324;8.548;2023-06-19T12:37:16;35.40;54.30
32811;DHT22;65470;47.324;8.548;2023-06-19T12:39:43;35.10;54.90
32811;DHT22;65470;47.324;8.548;2023-06-19T12:42:09;34.90;57.60
32811;DHT22;65470;47.324;8.548;2023-06-19T12:44:38;35.30;57.70
32811;DHT22;65470;47.324;8.548;2023-06-19T12:47:05;35.70;58.50
32811;DHT22;65470;47.324;8.548;2023-06-19T12:49:31;36.00;59.30
32811;DHT22;65470;47.324;8.548;2023-06-19T12:51:57;36.50;55.70
32811;DHT22;65470;47.324;8.548;2023-06-19T12:54:22;36.60;55.00
32811;DHT22;65470;47.324;8.548;2023-06-19T12:56:49;36.30;54.30
32811;DHT22;65470;47.324;8.548;2023-06-19T12:59:14;35.80;55.70
32811;DHT22;65470;47.324;8.548;2023-06-19T13:01:41;35.80;55.20
32811;DHT22;65470;47.324;8.548;2023-06-19T13:04:07;36.10;58.40
32811;DHT22;65470;47.324;8.548;2023-06-19T13:06:32;36.30;56.80
32811;DHT22;65470;47.324;8.548;2023-06-19T13:08:58;36.30;58.40
32811;DHT22;65470;47.324;8.548;2023-06-19T13:11:24;36.60;56.80
32811;DHT22;65470;47.324;8.548;2023-06-19T13:13:50;36.70;56.60
32811;DHT22;65470;47.324;8.548;2023-06-19T13:16:15;36.60;55.20
32811;DHT22;65470;47.324;8.548;2023-06-19T13:18:44;36.80;53.00
32811;DHT22;65470;47.324;8.548;2023-06-19T13:21:11;37.00;55.20
32811;DHT22;65470;47.324;8.548;2023-06-19T13:23:37;37.00;54.10
32811;DHT22;65470;47.324;8.548;2023-06-19T13:26:02;37.00;54.10
32811;DHT22;65470;47.324;8.548;2023-06-19T13:28:28;36.90;52.90
32811;DHT22;65470;47.324;8.548;2023-06-19T13:30:53;36.40;54.70
32811;DHT22;65470;47.324;8.548;2023-06-19T13:33:19;36.10;53.70
32811;DHT22;65470;47.324;8.548;2023-06-19T13:35:45;35.60;53.10
32811;DHT22;65470;47.324;8.548;2023-06-19T13:38:11;35.10;55.00
32811;DHT22;65470;47.324;8.548;2023-06-19T13:40:37;34.70;54.50
32811;DHT22;65470;47.324;8.548;2023-06-19T13:43:02;34.10;53.80
32811;DHT22;65470;47.324;8.548;2023-06-19T13:45:29;33.80;54.00
32811;DHT22;65470;47.324;8.548;2023-06-19T13:47:56;33.60;55.30
32811;DHT22;65470;47.324;8.548;2023-06-19T13:50:23;33.30;56.60
32811;DHT22;65470;47.324;8.548;2023-06-19T13:52:49;33.20;56.10
32811;DHT22;65470;47.324;8.548;2023-06-19T13:55:15;33.00;56.50
32811;DHT22;65470;47.324;8.548;2023-06-19T13:57:42;32.90;55.30
32811;DHT22;65470;47.324;8.548;2023-06-19T14:00:08;32.80;57.20
32811;DHT22;65470;47.324;8.548;2023-06-19T14:02:38;32.60;57.00
32811;DHT22;65470;47.324;8.548;2023-06-19T14:05:08;32.30;56.50
32811;DHT22;65470;47.324;8.548;2023-06-19T14:07:35;32.20;57.30
32811;DHT22;65470;47.324;8.548;2023-06-19T14:10:02;32.20;57.10
32811;DHT22;65470;47.324;8.548;2023-06-19T14:12:29;32.20;57.70
32811;DHT22;65470;47.324;8.548;2023-06-19T14:14:55;32.30;56.80
32811;DHT22;65470;47.324;8.548;2023-06-19T14:17:21;32.50;57.40
32811;DHT22;65470;47.324;8.548;2023-06-19T14:19:47;32.60;57.50
32811;DHT22;65470;47.324;8.548;2023-06-19T14:22:12;32.60;56.50
32811;DHT22;65470;47.324;8.548;2023-06-19T14:24:38;32.20;57.40
32811;DHT22;65470;47.324;8.548;2023-06-19T14:27:04;32.00;58.00
32811;DHT22;65470;47.324;8.548;2023-06-19T14:29:30;31.80;58.00
32811;DHT22;65470;47.324;8.548;2023-06-19T14:31:55;31.80;58.70
32811;DHT22;65470;47.324;8.548;2023-06-19T14:34:21;31.70;58.50
32811;DHT22;65470;47.324;8.548;2023-06-19T14:36:47;31.60;58.70
32811;DHT22;65470;47.324;8.548;2023-06-19T14:39:13;31.60;59.10
32811;DHT22;65470;47.324;8.548;2023-06-19T14:41:39;31.50;60.10
32811;DHT22;65470;47.324;8.548;2023-06-19T14:44:05;31.40;60.00
32811;DHT22;65470;47.324;8.548;2023-06-19T14:46:34;31.40;59.70
32811;DHT22;65470;47.324;8.548;2023-06-19T14:49:05;31.40;59.90
32811;DHT22;65470;47.324;8.548;2023-06-19T14:51:31;31.50;60.50
32811;DHT22;65470;47.324;8.548;2023-06-19T14:53:57;31.90;60.00
32811;DHT22;65470;47.324;8.548;2023-06-19T14:56:22;32.00;60.00
32811;DHT22;65470;47.324;8.548;2023-06-19T14:58:48;32.20;59.40
32811;DHT22;65470;47.324;8.548;2023-06-19T15:01:14;32.40;60.00
32811;DHT22;65470;47.324;8.548;2023-06-19T15:03:40;32.30;59.80
32811;DHT22;65470;47.324;8.548;2023-06-19T15:06:07;32.00;59.80
32811;DHT22;65470;47.324;8.548;2023-06-19T15:08:32;32.00;61.40
32811;DHT22;65470;47.324;8.548;2023-06-19T15:11:00;32.00;60.50
32811;DHT22;65470;47.324;8.548;2023-06-19T15:13:25;32.20;59.80
32811;DHT22;65470;47.324;8.548;2023-06-19T15:15:51;32.10;58.30
32811;DHT22;65470;47.324;8.548;2023-06-19T15:18:17;31.40;59.20
32811;DHT22;65470;47.324;8.548;2023-06-19T15:20:42;31.30;60.80
32811;DHT22;65470;47.324;8.548;2023-06-19T15:23:08;31.30;62.10
32811;DHT22;65470;47.324;8.548;2023-06-19T15:25:34;31.60;62.30
32811;DHT22;65470;47.324;8.548;2023-06-19T15:28:00;31.90;63.10
32811;DHT22;65470;47.324;8.548;2023-06-19T15:30:26;31.90;62.40
32811;DHT22;65470;47.324;8.548;2023-06-19T15:32:52;31.60;62.50